createdAt,value
2022-10-11T00:00:36.280Z,74.52
2022-10-11T00:01:36.333Z,74.93
2022-10-11T00:02:36.265Z,75.95
2022-10-11T00:03:36.286Z,76.50
2022-10-11T00:04:36.246Z,77.11
2022-10-11T00:05:36.281Z,77.31
2022-10-11T00:06:36.212Z,77.31
2022-10-11T00:07:36.228Z,77.11
2022-10-11T00:08:36.221Z,77.72
2022-10-11T00:09:36.191Z,77.82
2022-10-11T00:10:36.181Z,77.92
2022-10-11T00:11:36.289Z,78.27
2022-10-11T00:12:36.149Z,76.84
2022-10-11T00:13:36.151Z,75.78
2022-10-11T00:14:36.129Z,75.71
2022-10-11T00:15:36.742Z,75.71
2022-10-11T00:16:36.122Z,75.78
2022-10-11T00:17:36.201Z,75.68
2022-10-11T00:18:36.081Z,75.98
2022-10-11T00:19:36.071Z,76.39
2022-10-11T00:20:36.075Z,77.00
2022-10-11T00:21:36.067Z,77.62
2022-10-11T00:22:36.040Z,78.02
2022-10-11T00:23:36.068Z,78.23
2022-10-11T00:24:36.080Z,78.37
2022-10-11T00:25:36.012Z,77.86
2022-10-11T00:26:36.460Z,76.39
2022-10-11T00:27:36.611Z,75.57
2022-10-11T00:28:36.040Z,75.78
2022-10-11T00:29:36.354Z,75.98
2022-10-11T00:30:35.964Z,76.70
2022-10-11T00:31:36.076Z,77.34
2022-10-11T00:32:35.925Z,77.86
2022-10-11T00:33:35.925Z,78.47
2022-10-11T00:34:35.969Z,78.77
2022-10-11T00:35:35.929Z,79.28
2022-10-11T00:36:35.886Z,79.69
2022-10-11T00:37:35.869Z,78.98
2022-10-11T00:38:35.846Z,79.08
2022-10-11T00:39:37.753Z,79.28
2022-10-11T00:40:35.844Z,79.08
2022-10-11T00:41:35.905Z,78.77
2022-10-11T00:42:35.808Z,79.18
2022-10-11T00:43:35.797Z,79.59
2022-10-11T00:44:35.851Z,79.49
2022-10-11T00:45:35.793Z,79.39
2022-10-11T00:46:35.755Z,78.84
2022-10-11T00:47:35.949Z,78.84
2022-10-11T00:48:35.769Z,78.94
2022-10-11T00:49:35.758Z,79.25
2022-10-11T00:50:36.249Z,79.75
2022-10-11T00:51:35.915Z,80.16
2022-10-11T00:52:35.819Z,80.47
2022-10-11T00:53:35.796Z,80.68
2022-10-11T00:54:35.793Z,79.86
2022-10-11T00:55:35.691Z,79.96
2022-10-11T00:56:35.682Z,78.02
2022-10-11T00:57:35.805Z,77.31
2022-10-11T00:58:35.672Z,75.44
2022-10-11T00:59:35.748Z,75.13
2022-10-11T01:00:35.622Z,75.34
2022-10-11T01:01:35.663Z,75.54
2022-10-11T01:02:35.615Z,75.48
2022-10-11T01:03:35.593Z,74.21
2022-10-11T01:04:35.841Z,74.21
2022-10-11T01:05:35.654Z,75.13
2022-10-11T01:06:35.722Z,74.76
2022-10-11T01:07:35.520Z,74.66
2022-10-11T01:08:36.317Z,74.96
2022-10-11T01:09:35.799Z,74.76
2022-10-11T01:10:35.628Z,74.86
2022-10-11T01:11:35.617Z,75.27
2022-10-11T01:12:35.477Z,75.78
2022-10-11T01:13:35.471Z,75.88
2022-10-11T01:14:35.452Z,76.19
2022-10-11T01:15:35.477Z,76.59
2022-10-11T01:16:35.457Z,76.39
2022-10-11T01:17:35.472Z,76.29
2022-10-11T01:18:35.412Z,75.88
2022-10-11T01:19:35.405Z,75.37
2022-10-11T01:20:35.397Z,75.57
2022-10-11T01:21:36.294Z,75.07
2022-10-11T01:22:35.369Z,74.55
2022-10-11T01:23:35.442Z,74.15
2022-10-11T01:24:35.351Z,73.64
2022-10-11T01:25:35.359Z,73.84
2022-10-11T01:26:35.339Z,74.66
2022-10-11T01:27:35.324Z,75.27
2022-10-11T01:28:35.414Z,75.98
2022-10-11T01:29:35.318Z,75.88
2022-10-11T01:30:35.297Z,75.16
2022-10-11T01:31:35.793Z,74.45
2022-10-11T01:32:35.702Z,74.45
2022-10-11T01:33:35.418Z,74.15
2022-10-11T01:34:35.686Z,74.15
2022-10-11T01:35:35.778Z,72.92
2022-10-11T01:36:35.357Z,72.72
2022-10-11T01:37:35.508Z,72.92
2022-10-11T01:38:35.193Z,72.52
2022-10-11T01:39:35.440Z,72.82
2022-10-11T01:40:35.589Z,72.72
2022-10-11T01:41:35.568Z,72.82
2022-10-11T01:42:35.497Z,73.64
2022-10-11T01:43:35.521Z,74.25
2022-10-11T01:44:35.444Z,74.76
2022-10-11T01:45:35.411Z,75.41
2022-10-11T01:46:35.363Z,75.71
2022-10-11T01:47:35.911Z,76.02
2022-10-11T01:48:35.549Z,76.32
2022-10-11T01:49:35.465Z,76.93
2022-10-11T01:50:35.424Z,77.45
2022-10-11T01:51:35.421Z,77.65
2022-10-11T01:52:36.246Z,77.14
2022-10-11T01:53:35.898Z,75.98
2022-10-11T01:55:03.959Z,74.76
2022-10-11T01:55:35.419Z,74.25
2022-10-11T01:56:35.490Z,73.33
2022-10-11T01:57:35.326Z,73.64
2022-10-11T01:58:35.241Z,73.74
2022-10-11T01:59:35.091Z,74.05
2022-10-11T02:00:35.411Z,74.38
2022-10-11T02:01:35.398Z,74.59
2022-10-11T02:02:35.307Z,75.00
2022-10-11T02:03:35.383Z,75.31
2022-10-11T02:04:34.912Z,75.57
2022-10-11T02:05:34.942Z,75.78
2022-10-11T02:06:34.896Z,76.22
2022-10-11T02:07:34.854Z,75.88
2022-10-11T02:08:34.849Z,76.09
2022-10-11T02:09:34.864Z,76.50
2022-10-11T02:10:34.938Z,77.14
2022-10-11T02:11:34.903Z,76.84
2022-10-11T02:12:34.807Z,76.12
2022-10-11T02:13:34.788Z,75.31
2022-10-11T02:14:34.830Z,74.90
2022-10-11T02:15:34.766Z,75.16
2022-10-11T02:16:34.783Z,75.07
2022-10-11T02:17:34.812Z,74.96
2022-10-11T02:18:34.816Z,74.96
2022-10-11T02:19:34.734Z,75.37
2022-10-11T02:20:34.727Z,74.96
2022-10-11T02:21:34.701Z,74.05
2022-10-11T02:22:34.711Z,73.23
2022-10-11T02:23:34.783Z,73.03
2022-10-11T02:24:35.589Z,73.03
2022-10-11T02:25:34.664Z,72.82
2022-10-11T02:26:34.661Z,72.92
2022-10-11T02:27:34.631Z,73.54
2022-10-11T02:28:34.681Z,73.94
2022-10-11T02:29:34.709Z,73.64
2022-10-11T02:30:34.648Z,73.03
2022-10-11T02:31:34.594Z,72.62
2022-10-11T02:32:34.584Z,72.21
2022-10-11T02:33:34.588Z,72.31
2022-10-11T02:34:34.603Z,72.21
2022-10-11T02:35:34.613Z,71.60
2022-10-11T02:36:34.560Z,72.21
2022-10-11T02:37:34.522Z,72.28
2022-10-11T02:38:34.514Z,72.17
2022-10-11T02:39:34.500Z,72.28
2022-10-11T02:40:34.492Z,72.08
2022-10-11T02:41:34.805Z,72.48
2022-10-11T02:42:35.105Z,72.99
2022-10-11T02:43:34.470Z,73.77
2022-10-11T02:44:34.450Z,74.08
2022-10-11T02:45:34.427Z,74.90
2022-10-11T02:46:34.515Z,75.85
2022-10-11T02:47:34.724Z,75.71
2022-10-11T02:48:34.404Z,75.92
2022-10-11T02:49:34.390Z,76.25
2022-10-11T02:50:34.384Z,75.64
2022-10-11T02:51:34.362Z,75.03
2022-10-11T02:52:34.432Z,75.03
2022-10-11T02:53:34.356Z,74.52
2022-10-11T02:54:34.383Z,74.05
2022-10-11T02:55:34.324Z,73.84
2022-10-11T02:56:34.325Z,73.54
2022-10-11T02:57:34.311Z,73.43
2022-10-11T02:58:34.360Z,73.33
2022-10-11T02:59:34.324Z,73.84
2022-10-11T03:00:34.271Z,74.49
2022-10-11T03:01:34.338Z,74.90
2022-10-11T03:02:34.248Z,74.38
2022-10-11T03:03:34.234Z,73.57
2022-10-11T03:04:34.273Z,72.04
2022-10-11T03:05:34.211Z,71.63
2022-10-11T03:06:34.242Z,70.72
2022-10-11T03:07:34.195Z,70.40
2022-10-11T03:08:34.193Z,69.69
2022-10-11T03:09:34.213Z,69.49
2022-10-11T03:10:34.218Z,68.88
2022-10-11T03:11:34.226Z,68.98
2022-10-11T03:12:34.149Z,69.38
2022-10-11T03:13:34.140Z,69.69
2022-10-11T03:14:34.115Z,70.07
2022-10-11T03:15:34.100Z,70.51
2022-10-11T03:16:34.150Z,71.02
2022-10-11T03:17:37.093Z,71.02
2022-10-11T03:18:34.229Z,71.53
2022-10-11T03:19:34.066Z,72.24
2022-10-11T03:20:34.044Z,72.89
2022-10-11T03:21:34.054Z,73.30
2022-10-11T03:22:34.085Z,73.71
2022-10-11T03:23:34.022Z,74.11
2022-10-11T03:24:34.053Z,74.66
2022-10-11T03:25:34.001Z,73.60
2022-10-11T03:26:33.972Z,72.89
2022-10-11T03:27:33.970Z,72.14
2022-10-11T03:28:34.105Z,71.73
2022-10-11T03:29:33.950Z,71.84
2022-10-11T03:30:33.939Z,72.45
2022-10-11T03:31:33.965Z,73.27
2022-10-11T03:32:33.918Z,73.57
2022-10-11T03:33:33.920Z,74.08
2022-10-11T03:34:33.953Z,73.77
2022-10-11T03:35:33.908Z,73.36
2022-10-11T03:36:33.869Z,73.98
2022-10-11T03:37:33.865Z,73.06
2022-10-11T03:38:33.851Z,72.92
2022-10-11T03:39:33.838Z,72.82
2022-10-11T03:40:33.896Z,72.62
2022-10-11T03:41:33.863Z,72.21
2022-10-11T03:42:33.849Z,71.46
2022-10-11T03:43:33.792Z,71.56
2022-10-11T03:44:33.770Z,71.77
2022-10-11T03:45:33.759Z,72.17
2022-10-11T03:46:33.816Z,72.08
2022-10-11T03:47:33.745Z,71.87
2022-10-11T03:48:33.790Z,71.67
2022-10-11T03:49:33.764Z,71.56
2022-10-11T03:50:33.714Z,70.95
2022-10-11T03:51:33.694Z,70.82
2022-10-11T03:52:33.824Z,71.23
2022-10-11T03:53:33.700Z,71.33
2022-10-11T03:54:33.684Z,71.43
2022-10-11T03:55:33.643Z,71.87
2022-10-11T03:56:33.642Z,71.77
2022-10-11T03:57:34.160Z,72.28
2022-10-11T03:58:33.688Z,72.48
2022-10-11T03:59:33.685Z,72.17
2022-10-11T04:00:33.657Z,72.08
2022-10-11T04:01:33.653Z,72.17
2022-10-11T04:02:38.295Z,71.97
2022-10-11T04:03:33.565Z,72.17
2022-10-11T04:04:33.621Z,72.08
2022-10-11T04:05:33.570Z,72.08
2022-10-11T04:06:33.535Z,72.38
2022-10-11T04:07:33.518Z,72.69
2022-10-11T04:08:33.547Z,72.89
2022-10-11T04:09:33.513Z,72.69
2022-10-11T04:10:33.546Z,72.79
2022-10-11T04:11:33.471Z,72.58
2022-10-11T04:12:33.874Z,72.79
2022-10-11T04:13:33.453Z,73.10
2022-10-11T04:14:33.524Z,73.60
2022-10-11T04:15:33.418Z,74.01
2022-10-11T04:16:33.479Z,74.73
2022-10-11T04:17:33.425Z,74.73
2022-10-11T04:18:33.388Z,75.13
2022-10-11T04:19:33.747Z,75.54
2022-10-11T04:20:33.518Z,75.98
2022-10-11T04:21:33.375Z,76.29
2022-10-11T04:22:33.443Z,76.80
2022-10-11T04:23:33.342Z,77.31
2022-10-11T04:24:33.319Z,77.51
2022-10-11T04:25:33.308Z,77.72
2022-10-11T04:26:33.308Z,78.12
2022-10-11T04:27:33.301Z,77.65
2022-10-11T04:28:34.293Z,77.75
2022-10-11T04:29:33.287Z,77.55
2022-10-11T04:30:33.262Z,77.41
2022-10-11T04:31:33.240Z,77.65
2022-10-11T04:32:33.385Z,78.06
2022-10-11T04:33:33.245Z,78.57
2022-10-11T04:34:33.303Z,78.37
2022-10-11T04:35:33.205Z,78.30
2022-10-11T04:36:34.079Z,78.00
2022-10-11T04:37:33.175Z,77.59
2022-10-11T04:38:33.172Z,77.69
2022-10-11T04:39:33.176Z,77.69
2022-10-11T04:40:33.287Z,77.69
2022-10-11T04:41:33.259Z,78.30
2022-10-11T04:42:33.199Z,78.91
2022-10-11T04:43:33.164Z,79.22
2022-10-11T04:44:33.173Z,79.73
2022-10-11T04:45:33.158Z,80.07
2022-10-11T04:46:33.204Z,79.66
2022-10-11T04:47:33.143Z,79.12
2022-10-11T04:48:33.111Z,78.81
2022-10-11T04:49:33.069Z,78.30
2022-10-11T04:50:33.095Z,78.20
2022-10-11T04:51:33.058Z,77.89
2022-10-11T04:52:33.300Z,78.00
2022-10-11T04:53:33.249Z,77.59
2022-10-11T04:54:33.100Z,76.93
2022-10-11T04:55:33.056Z,77.14
2022-10-11T04:56:32.980Z,77.45
2022-10-11T04:57:32.953Z,78.00
2022-10-11T04:58:33.101Z,78.20
2022-10-11T04:59:32.937Z,78.09
2022-10-11T05:00:32.924Z,77.55
2022-10-11T05:01:33.068Z,77.75
2022-10-11T05:02:33.004Z,78.00
2022-10-11T05:03:32.883Z,77.89
2022-10-11T05:04:32.980Z,77.48
2022-10-11T05:05:32.893Z,77.38
2022-10-11T05:06:32.908Z,76.84
2022-10-11T05:07:32.849Z,76.73
2022-10-11T05:08:32.843Z,77.34
2022-10-11T05:09:32.845Z,79.43
2022-10-11T05:10:32.866Z,82.36
2022-10-11T05:11:32.876Z,84.14
2022-10-11T05:12:32.829Z,86.05
2022-10-11T05:13:32.793Z,87.08
2022-10-11T05:14:32.793Z,87.73
2022-10-11T05:15:32.950Z,88.39
2022-10-11T05:16:32.841Z,89.11
2022-10-11T05:17:32.979Z,89.76
2022-10-11T05:18:32.730Z,90.28
2022-10-11T05:19:32.813Z,90.58
2022-10-11T05:20:32.700Z,90.79
2022-10-11T05:21:35.107Z,90.99
2022-10-11T05:22:32.741Z,90.83
2022-10-11T05:23:32.726Z,90.83
2022-10-11T05:24:32.655Z,90.93
2022-10-11T05:25:33.270Z,90.62
2022-10-11T05:26:32.625Z,90.07
2022-10-11T05:27:32.648Z,89.87
2022-10-11T05:28:39.210Z,89.87
2022-10-11T05:29:38.917Z,90.17
2022-10-11T05:30:38.882Z,91.35
2022-10-11T05:31:32.624Z,92.16
2022-10-11T05:32:32.569Z,92.61
2022-10-11T05:33:32.557Z,93.33
2022-10-11T05:34:32.599Z,94.15
2022-10-11T05:35:33.297Z,94.87
2022-10-11T05:36:33.111Z,94.92
2022-10-11T05:37:32.538Z,95.02
2022-10-11T05:38:32.522Z,94.96
2022-10-11T05:39:32.543Z,95.42
2022-10-11T05:40:32.578Z,96.14
2022-10-11T05:41:32.532Z,96.59
2022-10-11T05:42:32.469Z,97.00
2022-10-11T05:43:32.450Z,97.41
2022-10-11T05:44:32.439Z,97.41
2022-10-11T05:45:32.495Z,97.41
2022-10-11T05:46:32.476Z,97.31
2022-10-11T05:47:32.407Z,97.20
2022-10-11T05:48:32.469Z,96.69
2022-10-11T05:49:32.468Z,96.03
2022-10-11T05:50:32.387Z,95.31
2022-10-11T05:51:32.354Z,94.76
2022-10-11T05:52:32.401Z,94.24
2022-10-11T05:53:32.389Z,93.99
2022-10-11T05:54:32.320Z,93.99
2022-10-11T05:55:32.337Z,94.10
2022-10-11T05:56:32.294Z,94.10
2022-10-11T05:57:32.288Z,94.10
2022-10-11T05:58:32.321Z,93.99
2022-10-11T05:59:32.301Z,93.68
2022-10-11T06:00:32.264Z,93.99
2022-10-11T06:01:32.295Z,94.20
2022-10-11T06:02:32.230Z,94.51
2022-10-11T06:03:32.234Z,94.85
2022-10-11T06:04:32.329Z,95.37
2022-10-11T06:05:32.215Z,95.83
2022-10-11T06:06:36.560Z,96.18
2022-10-11T06:07:34.088Z,96.59
2022-10-11T06:08:32.892Z,96.80
2022-10-11T06:09:32.157Z,97.00
2022-10-11T06:10:32.204Z,97.15
2022-10-11T06:11:32.136Z,97.15
2022-10-11T06:12:32.169Z,97.36
2022-10-11T06:13:32.155Z,97.66
2022-10-11T06:14:32.095Z,97.72
2022-10-11T06:15:32.121Z,97.62
2022-10-11T06:16:32.765Z,97.41
2022-10-11T06:17:32.068Z,97.20
2022-10-11T06:18:32.045Z,97.00
2022-10-11T06:19:32.073Z,97.00
2022-10-11T06:20:32.158Z,97.00
2022-10-11T06:21:32.021Z,97.10
2022-10-11T06:22:32.072Z,97.10
2022-10-11T06:23:32.041Z,97.10
2022-10-11T06:24:32.021Z,96.80
2022-10-11T06:25:32.010Z,96.75
2022-10-11T06:26:31.953Z,96.65
2022-10-11T06:27:32.009Z,96.65
2022-10-11T06:28:32.074Z,96.65
2022-10-11T06:29:31.935Z,96.65
2022-10-11T06:30:32.006Z,96.75
2022-10-11T06:31:31.914Z,96.95
2022-10-11T06:32:31.931Z,97.16
2022-10-11T06:33:31.915Z,97.27
2022-10-11T06:34:31.925Z,97.27
2022-10-11T06:35:32.203Z,97.37
2022-10-11T06:36:32.289Z,97.32
2022-10-11T06:37:31.913Z,97.42
2022-10-11T06:38:32.000Z,97.53
2022-10-11T06:39:31.821Z,97.32
2022-10-11T06:40:32.080Z,96.87
2022-10-11T06:41:31.799Z,96.66
2022-10-11T06:42:31.783Z,96.45
2022-10-11T06:43:31.818Z,96.20
2022-10-11T06:44:31.781Z,96.10
2022-10-11T06:45:31.766Z,95.90
2022-10-11T06:46:31.772Z,95.54
2022-10-11T06:47:31.725Z,95.34
2022-10-11T06:48:31.730Z,95.14
2022-10-11T06:49:31.744Z,94.89
2022-10-11T06:50:57.865Z,94.68
2022-10-11T06:51:31.683Z,94.48
2022-10-11T06:52:31.776Z,94.43
2022-10-11T06:53:31.663Z,94.33
2022-10-11T06:54:31.691Z,93.92
2022-10-11T06:55:31.688Z,93.71
2022-10-11T06:56:31.672Z,93.62
2022-10-11T06:57:31.621Z,93.62
2022-10-11T06:58:31.653Z,93.62
2022-10-11T06:59:31.593Z,93.71
2022-10-11T07:00:31.643Z,93.71
2022-10-11T07:01:32.911Z,93.30
2022-10-11T07:02:31.708Z,93.10
2022-10-11T07:03:31.589Z,93.06
2022-10-11T07:04:31.650Z,92.59
2022-10-11T07:05:31.536Z,92.49
2022-10-11T07:06:31.563Z,92.28
2022-10-11T07:07:31.577Z,92.28
2022-10-11T07:08:31.681Z,92.59
2022-10-11T07:09:31.487Z,92.79
2022-10-11T07:10:31.590Z,92.90
2022-10-11T07:11:31.516Z,92.90
2022-10-11T07:12:31.463Z,92.44
2022-10-11T07:13:31.472Z,92.55
2022-10-11T07:14:31.440Z,92.65
2022-10-11T07:15:31.445Z,92.24
2022-10-11T07:16:31.705Z,91.83
2022-10-11T07:17:31.397Z,91.38
2022-10-11T07:18:31.432Z,91.17
2022-10-11T07:19:31.411Z,90.97
2022-10-11T07:20:31.405Z,90.92
2022-10-11T07:21:31.385Z,90.82
2022-10-11T07:22:32.721Z,90.11
2022-10-11T07:23:31.381Z,90.31
2022-10-11T07:24:31.339Z,90.52
2022-10-11T07:25:31.350Z,90.21
2022-10-11T07:26:37.449Z,90.68
2022-10-11T07:27:31.302Z,90.72
2022-10-11T07:28:31.369Z,90.41
2022-10-11T07:29:31.820Z,90.21
2022-10-11T07:30:31.275Z,90.41
2022-10-11T07:31:31.285Z,89.76
2022-10-11T07:32:31.278Z,89.97
2022-10-11T07:33:31.297Z,90.17
2022-10-11T07:34:31.274Z,90.06
2022-10-11T07:35:31.203Z,90.17
2022-10-11T07:36:31.266Z,90.47
2022-10-11T07:37:31.230Z,91.29
2022-10-11T07:38:31.170Z,91.19
2022-10-11T07:39:31.183Z,90.88
2022-10-11T07:40:31.301Z,90.92
2022-10-11T07:41:31.122Z,90.72
2022-10-11T07:42:31.105Z,91.03
2022-10-11T07:43:31.479Z,90.92
2022-10-11T07:44:31.090Z,90.82
2022-10-11T07:45:31.087Z,90.68
2022-10-11T07:46:32.147Z,90.58
2022-10-11T07:47:31.094Z,90.68
2022-10-11T07:48:31.102Z,90.37
2022-10-11T07:49:31.070Z,90.58
2022-10-11T07:51:47.438Z,90.27
2022-10-11T07:52:49.213Z,90.47
2022-10-11T07:53:48.611Z,90.68
2022-10-11T07:54:48.549Z,90.37
2022-10-11T07:55:48.770Z,90.37
2022-10-11T07:56:48.491Z,90.47
2022-10-11T07:57:48.375Z,90.06
2022-10-11T07:58:48.368Z,89.86
2022-10-11T07:59:50.507Z,89.86
2022-10-11T08:00:48.326Z,89.97
2022-10-11T08:01:48.362Z,90.27
2022-10-11T08:02:48.356Z,90.21
2022-10-11T08:03:48.254Z,90.21
2022-10-11T08:04:48.245Z,91.03
2022-10-11T08:05:49.286Z,91.85
2022-10-11T08:06:52.514Z,92.36
2022-10-11T08:07:48.216Z,92.81
2022-10-11T08:08:48.230Z,93.63
2022-10-11T08:09:48.185Z,94.34
2022-10-11T08:10:48.174Z,95.10
2022-10-11T08:11:48.227Z,95.82
2022-10-11T08:12:48.200Z,96.38
2022-10-11T08:13:48.173Z,96.69
2022-10-11T08:14:48.294Z,97.30
2022-10-11T08:15:48.145Z,97.81
2022-10-11T08:16:48.176Z,98.22
2022-10-11T08:17:48.403Z,98.53
2022-10-11T08:18:48.129Z,98.74
2022-10-11T08:19:48.198Z,98.63
2022-10-11T08:20:48.120Z,98.63
2022-10-11T08:21:48.126Z,98.58
2022-10-11T08:22:48.571Z,98.58
2022-10-11T08:23:49.926Z,98.49
2022-10-11T08:24:48.753Z,98.49
2022-10-11T08:25:48.056Z,98.33
2022-10-11T08:26:48.199Z,98.03
2022-10-11T08:27:47.985Z,98.03
2022-10-11T08:28:48.215Z,97.82
2022-10-11T08:29:48.221Z,97.88
2022-10-11T08:30:48.455Z,97.88
2022-10-11T08:31:48.195Z,97.78
2022-10-11T08:32:48.166Z,97.57
2022-10-11T08:33:47.911Z,97.42
2022-10-11T08:34:48.772Z,96.71
2022-10-11T08:35:48.159Z,96.41
2022-10-11T08:36:48.074Z,95.89
2022-10-11T08:37:47.912Z,95.79
2022-10-11T08:38:47.898Z,96.00
2022-10-11T08:39:47.994Z,95.85
2022-10-11T08:40:47.885Z,95.95
2022-10-11T08:41:47.930Z,95.95
2022-10-11T08:42:47.878Z,95.54
2022-10-11T08:43:48.524Z,95.03
2022-10-11T08:45:47.839Z,94.52
2022-10-11T08:46:47.797Z,94.93
2022-10-11T08:47:47.746Z,95.03
2022-10-11T08:48:47.737Z,95.13
2022-10-11T08:49:47.739Z,94.58
2022-10-11T08:50:47.851Z,94.37
2022-10-11T08:51:47.693Z,93.96
2022-10-11T08:52:47.680Z,93.45
2022-10-11T08:53:48.639Z,93.35
2022-10-11T08:54:47.699Z,92.80
2022-10-11T08:55:47.685Z,92.90
2022-10-11T08:56:47.687Z,92.64
2022-10-11T08:57:47.652Z,92.59
2022-10-11T08:58:47.667Z,91.92
2022-10-11T08:59:47.635Z,91.11
2022-10-11T09:00:47.639Z,91.00
2022-10-11T09:01:47.768Z,91.72
2022-10-11T09:03:07.448Z,92.02
2022-10-11T09:03:47.587Z,91.92
2022-10-11T09:04:47.551Z,92.13
2022-10-11T09:05:47.591Z,92.33
2022-10-11T09:06:47.781Z,91.72
2022-10-11T09:07:47.546Z,91.56
2022-10-11T09:08:47.744Z,91.25
2022-10-11T09:09:47.642Z,91.92
2022-10-11T09:10:47.506Z,92.54
2022-10-11T09:11:49.122Z,92.43
2022-10-11T09:12:48.088Z,92.19
2022-10-11T09:13:47.513Z,92.80
2022-10-11T09:14:47.562Z,92.14
2022-10-11T09:15:47.454Z,91.33
2022-10-11T09:16:47.402Z,92.41
2022-10-11T09:17:47.550Z,92.81
2022-10-11T09:18:48.150Z,91.18
2022-10-11T09:19:47.387Z,90.31
2022-10-11T09:20:47.533Z,91.02
2022-10-11T09:21:47.451Z,91.08
2022-10-11T09:22:47.442Z,91.49
2022-10-11T09:23:47.376Z,91.79
2022-10-11T09:24:47.478Z,91.89
2022-10-11T09:25:47.445Z,92.20
2022-10-11T09:26:47.378Z,92.20
2022-10-11T09:28:02.403Z,91.85
2022-10-11T09:28:47.377Z,90.83
2022-10-11T09:29:47.355Z,88.39
2022-10-11T09:30:47.300Z,88.39
2022-10-11T09:31:47.406Z,89.10
2022-10-11T09:32:47.311Z,89.40
2022-10-11T09:33:47.227Z,90.28
2022-10-11T09:34:47.238Z,90.28
2022-10-11T09:35:47.275Z,88.90
2022-10-11T09:36:47.177Z,89.10
2022-10-11T09:37:47.268Z,89.20
2022-10-11T09:38:47.250Z,89.92
2022-10-11T09:39:48.223Z,89.81
2022-10-11T09:40:47.236Z,90.42
2022-10-11T09:41:47.304Z,90.08
2022-10-11T09:42:47.184Z,90.28
2022-10-11T09:43:47.230Z,90.18
2022-10-11T09:44:47.182Z,89.36
2022-10-11T09:45:49.620Z,89.06
2022-10-11T09:46:47.171Z,90.14
2022-10-11T09:47:47.169Z,89.94
2022-10-11T09:48:47.491Z,88.20
2022-10-11T09:49:47.368Z,88.61
2022-10-11T09:50:47.479Z,89.01
2022-10-11T09:51:47.097Z,89.63
2022-10-11T09:52:47.242Z,89.99
2022-10-11T09:53:47.125Z,88.10
2022-10-11T09:54:47.128Z,88.26
2022-10-11T09:55:47.259Z,88.77
2022-10-11T09:56:47.266Z,88.36
2022-10-11T09:57:47.097Z,88.06
2022-10-11T09:58:46.943Z,87.55
2022-10-11T09:59:46.959Z,87.35
2022-10-11T10:00:47.940Z,87.41
2022-10-11T10:01:47.180Z,87.51
2022-10-11T10:02:46.977Z,87.30
2022-10-11T10:03:48.534Z,87.41
2022-10-11T10:04:46.871Z,87.51
2022-10-11T10:05:46.970Z,87.20
2022-10-11T10:06:47.030Z,87.81
2022-10-11T10:07:47.076Z,87.77
2022-10-11T10:08:46.926Z,87.67
2022-10-11T10:09:46.906Z,86.96
2022-10-11T10:10:46.825Z,87.37
2022-10-11T10:11:46.973Z,86.86
2022-10-11T10:12:46.974Z,86.86
2022-10-11T10:13:47.609Z,88.65
2022-10-11T10:14:47.108Z,87.63
2022-10-11T10:15:46.864Z,87.73
2022-10-11T10:16:46.899Z,88.34
2022-10-11T10:17:46.857Z,88.34
2022-10-11T10:18:46.743Z,85.80
2022-10-11T10:19:46.796Z,85.90
2022-10-11T10:20:47.199Z,86.82
2022-10-11T10:21:46.731Z,86.92
2022-10-11T10:22:46.680Z,87.32
2022-10-11T10:23:46.695Z,86.21
2022-10-11T10:24:46.682Z,86.71
2022-10-11T10:25:46.700Z,86.57
2022-10-11T10:26:46.730Z,87.59
2022-10-11T10:27:46.653Z,86.98
2022-10-11T10:28:46.669Z,85.46
2022-10-11T10:29:46.644Z,84.34
2022-10-11T10:30:46.711Z,85.25
2022-10-11T10:32:12.419Z,84.95
2022-10-11T10:32:48.679Z,85.25
2022-10-11T10:33:46.642Z,84.54
2022-10-11T10:34:46.557Z,84.54
2022-10-11T10:35:46.578Z,85.55
2022-10-11T10:36:46.535Z,84.74
2022-10-11T10:37:46.516Z,84.54
2022-10-11T10:38:51.285Z,85.25
2022-10-11T10:39:46.496Z,85.46
2022-10-11T10:40:46.519Z,85.35
2022-10-11T10:41:47.596Z,85.66
2022-10-11T10:42:46.511Z,85.86
2022-10-11T10:43:46.622Z,85.35
2022-10-11T10:44:46.647Z,86.07
2022-10-11T10:45:46.450Z,85.46
2022-10-11T10:46:46.423Z,85.66
2022-10-11T10:47:46.604Z,85.35
2022-10-11T10:49:28.365Z,85.66
2022-10-11T10:49:54.024Z,85.46
2022-10-11T10:50:46.440Z,86.02
2022-10-11T10:51:46.345Z,84.64
2022-10-11T10:52:46.318Z,84.91
2022-10-11T10:53:46.378Z,84.36
2022-10-11T10:54:47.361Z,83.31
2022-10-11T10:55:46.484Z,82.66
2022-10-11T10:56:46.472Z,82.66
2022-10-11T10:57:46.283Z,81.60
2022-10-11T10:58:46.412Z,81.54
2022-10-11T10:59:48.293Z,82.35
2022-10-11T11:00:46.286Z,81.54
2022-10-11T11:01:46.291Z,82.59
2022-10-11T11:02:46.420Z,83.47
2022-10-11T11:03:47.207Z,83.20
2022-10-11T11:04:47.602Z,83.00
2022-10-11T11:05:46.254Z,83.31
2022-10-11T11:06:46.286Z,83.81
2022-10-11T11:07:46.171Z,83.40
2022-10-11T11:08:46.418Z,83.10
2022-10-11T11:09:46.164Z,83.04
2022-10-11T11:10:47.287Z,84.22
2022-10-11T11:11:46.138Z,82.70
2022-10-11T11:12:47.200Z,82.50
2022-10-11T11:13:46.233Z,82.39
2022-10-11T11:14:46.383Z,82.96
2022-10-11T11:15:46.081Z,81.99
2022-10-11T11:16:46.082Z,82.70
2022-10-11T11:17:46.096Z,82.09
2022-10-11T11:18:46.102Z,81.27
2022-10-11T11:19:46.166Z,81.88
2022-10-11T11:20:46.885Z,82.29
2022-10-11T11:21:46.118Z,82.19
2022-10-11T11:22:46.060Z,80.97
2022-10-11T11:23:46.019Z,82.09
2022-10-11T11:24:46.101Z,81.82
2022-10-11T11:25:45.999Z,82.03
2022-10-11T11:26:46.075Z,81.62
2022-10-11T11:27:45.935Z,82.33
2022-10-11T11:28:46.176Z,82.26
2022-10-11T11:29:46.050Z,82.78
2022-10-11T11:30:46.091Z,82.98
2022-10-11T11:31:45.910Z,82.47
2022-10-11T11:32:46.069Z,82.87
2022-10-11T11:33:48.772Z,82.64
2022-10-11T11:34:45.855Z,81.92
2022-10-11T11:35:45.847Z,82.03
2022-10-11T11:36:45.837Z,82.23
2022-10-11T11:37:45.836Z,82.12
2022-10-11T11:38:45.846Z,82.03
2022-10-11T11:39:46.638Z,82.43
2022-10-11T11:40:45.816Z,82.09
2022-10-11T11:41:45.796Z,81.38
2022-10-11T11:42:45.760Z,82.19
2022-10-11T11:43:45.755Z,81.99
2022-10-11T11:44:45.800Z,81.78
2022-10-11T11:45:45.801Z,81.78
2022-10-11T11:46:45.721Z,81.99
2022-10-11T11:47:46.009Z,82.84
2022-10-11T11:48:45.731Z,83.14
2022-10-11T11:49:45.854Z,83.75
2022-10-11T11:50:45.730Z,83.59
2022-10-11T11:51:45.695Z,84.05
2022-10-11T11:52:45.684Z,84.56
2022-10-11T11:53:45.656Z,84.36
2022-10-11T11:54:45.657Z,84.56
2022-10-11T11:55:45.893Z,84.87
2022-10-11T11:56:45.987Z,84.63
2022-10-11T11:57:45.588Z,83.45
2022-10-11T11:58:46.565Z,84.16
2022-10-11T11:59:45.608Z,84.05
2022-10-11T12:00:45.590Z,84.46
2022-10-11T12:01:45.574Z,85.58
2022-10-11T12:02:45.632Z,84.97
2022-10-11T12:03:45.580Z,84.72
2022-10-11T12:04:45.580Z,84.12
2022-10-11T12:05:45.546Z,83.71
2022-10-11T12:07:11.141Z,83.71
2022-10-11T12:07:45.481Z,84.42
2022-10-11T12:08:45.633Z,84.28
2022-10-11T12:09:46.222Z,83.17
2022-10-11T12:10:47.122Z,83.71
2022-10-11T12:11:46.228Z,84.48
2022-10-11T12:12:45.588Z,84.08
2022-10-11T12:13:46.120Z,83.98
2022-10-11T12:14:45.536Z,83.77
2022-10-11T12:15:45.501Z,83.06
2022-10-11T12:16:45.458Z,82.86
2022-10-11T12:17:45.644Z,83.67
2022-10-11T12:18:45.374Z,82.96
2022-10-11T12:19:45.452Z,82.76
2022-10-11T12:20:45.382Z,82.62
2022-10-11T12:21:45.358Z,82.34
2022-10-11T12:22:45.366Z,79.08
2022-10-11T12:23:45.371Z,75.20
2022-10-11T12:24:45.288Z,71.77
2022-10-11T12:25:45.329Z,69.85
2022-10-11T12:26:45.350Z,70.73
2022-10-11T12:27:45.278Z,69.18
2022-10-11T12:28:51.299Z,68.68
2022-10-11T12:29:45.251Z,69.12
2022-10-11T12:30:45.237Z,68.75
2022-10-11T12:31:46.225Z,68.18
2022-10-11T12:32:45.262Z,69.12
2022-10-11T12:33:45.192Z,68.24
2022-10-11T12:34:45.188Z,69.72
2022-10-11T12:35:45.313Z,68.21
2022-10-11T12:36:45.173Z,68.04
2022-10-11T12:37:45.187Z,67.94
2022-10-11T12:38:45.252Z,67.34
2022-10-11T12:39:45.131Z,67.07
2022-10-11T12:40:45.201Z,68.55
2022-10-11T12:41:45.210Z,65.84
2022-10-11T12:42:45.208Z,65.97
2022-10-11T12:43:45.427Z,64.90
2022-10-11T12:44:45.210Z,64.70
2022-10-11T12:45:45.271Z,65.00
2022-10-11T12:46:45.612Z,64.47
2022-10-11T12:47:45.223Z,64.20
2022-10-11T12:48:45.216Z,64.30
2022-10-11T12:49:45.074Z,65.33
2022-10-11T12:50:45.994Z,63.59
2022-10-11T12:51:45.160Z,63.70
2022-10-11T12:52:45.233Z,64.20
2022-10-11T12:53:48.129Z,66.17
2022-10-11T12:54:45.020Z,66.03